Pike, New York
Current Conditions -  °F | °C
As of 11:54 AM on Sunday 21 Dec 2014 (Local Time) from KDSV Reporting Station
Overcast Overcast  
Wind Chill: 33°   Ceiling: 2800
Heat Index: 33°   Visibility: 10mi
Dew Point: 22°   Wind: 3mph
Humidity: 64%   Direction: 350°N
Pressure: 30.31"   Gusts: NA
Location:  42.56°N, 78.15°W
Report Text: KDSV 211654Z AUTO 35003KT 10SM OVC028 01/M06 A3031 RMK AO2 SLP279 T00061056
Loading
Personal Weather Stations






























Interactive Weather Map New forecast layout! Learn more

10-Day Weather Forecast

Advertisements
Track Severe Weather on mobile